Time;durP1;ratioP1;P1;durP2;ratioP2;P2;SDS_P1;SDS_P2;PMS_P1;PMS_P2;Temp;Humidity;BMP_temperature;BMP_pressure;BME280_temperature;BME280_humidity;BME280_pressure;Samples;Min_cycle;Max_cycle;Signal;HPM_P1;HPM_P2
2022/08/08 16:36:47;;;;;;;1.95;0.90;;;25.20;61.30;;;;;;6216891;23;20241;-86
2022/08/08 16:39:25;;;;;;;2.08;0.80;;;25.10;61.40;;;;;;6191108;23;20001;-86
2022/08/08 16:41:51;;;;;;;3.45;0.77;;;25.00;60.90;;;;;;6193442;23;20098;-87
2022/08/08 16:44:19;;;;;;;2.20;1.83;;;25.00;61.10;;;;;;6190247;23;20414;-86
2022/08/08 16:46:47;;;;;;;3.33;2.70;;;24.90;61.10;;;;;;6218324;23;20059;-86
2022/08/08 16:49:17;;;;;;;3.35;2.55;;;24.90;61.30;;;;;;6190584;23;20426;-87
2022/08/08 16:51:50;;;;;;;4.93;4.38;;;24.80;61.30;;;;;;6191110;23;20005;-86
2022/08/08 16:54:18;;;;;;;3.95;3.55;;;24.70;61.60;;;;;;6195846;23;20005;-93
2022/08/08 16:56:56;;;;;;;;;;;;;;;;;;;;;
2022/08/08 16:59:27;;;;;;;4.65;4.22;;;24.60;62.10;;;;;;6197008;23;20080;-92
2022/08/08 17:01:53;;;;;;;3.95;3.60;;;24.70;62.30;;;;;;6168670;23;20009;-87
2022/08/08 17:04:26;;;;;;;3.47;2.72;;;24.70;62.60;;;;;;6166828;23;20036;-86
2022/08/08 17:06:52;;;;;;;3.17;2.20;;;24.70;62.70;;;;;;6191055;23;20058;-86
2022/08/08 17:09:18;;;;;;;2.22;1.20;;;24.70;62.80;;;;;;6189832;23;20083;-88
2022/08/08 17:11:44;;;;;;;1.25;0.90;;;24.70;63.00;;;;;;6217897;23;20433;-86
2022/08/08 17:14:13;;;;;;;1.45;1.10;;;24.60;63.00;;;;;;6190537;23;20091;-86
2022/08/08 17:16:39;;;;;;;2.35;1.02;;;24.50;63.20;;;;;;6191158;23;20005;-88
2022/08/08 17:19:07;;;;;;;2.80;0.80;;;24.50;63.40;;;;;;6190808;23;20063;-87
2022/08/08 17:21:44;;;;;;;1.50;0.80;;;24.40;63.60;;;;;;6165927;23;20004;-87
2022/08/08 17:24:10;;;;;;;1.85;0.88;;;24.40;63.70;;;;;;6190885;23;20032;-87
2022/08/08 17:26:38;;;;;;;2.15;0.90;;;24.20;63.70;;;;;;6191150;23;19997;-87
2022/08/08 17:29:04;;;;;;;1.23;0.65;;;24.20;63.80;;;;;;6193140;23;20075;-87
2022/08/08 17:31:33;;;;;;;1.92;0.85;;;24.20;64.10;;;;;;6195035;23;20485;-87
2022/08/08 17:34:01;;;;;;;1.80;0.80;;;24.10;64.10;;;;;;6202318;23;20008;-87
2022/08/08 17:36:30;;;;;;;1.02;0.75;;;24.10;64.30;;;;;;6237942;22;20008;-87
2022/08/08 17:38:57;;;;;;;1.77;0.70;;;24.00;64.40;;;;;;6248693;23;19989;-89
2022/08/08 22:29:29;;;;;;;3.70;1.70;;;20.90;79.00;;;;;;6310445;22;20085;-89
2022/08/08 22:32:13;;;;;;;;;;;;;;;;;;;;;
2022/08/08 22:34:48;;;;;;;3.28;1.40;;;20.80;79.10;;;;;;6293150;22;20035;-88
2022/08/08 22:38:05;;;;;;;;;;;;;;;;;;;;;
2022/08/08 22:40:46;;;;;;;1.75;1.23;;;20.70;79.50;;;;;;6316147;22;20010;-89
2022/08/08 22:43:50;;;;;;;4.80;1.60;;;20.70;79.70;;;;;;6318208;22;20006;-90
2022/08/08 22:46:49;;;;;;;;;;;;;;;;;;;;;
2022/08/08 22:49:48;;;;;;;3.63;1.33;;;20.50;79.80;;;;;;6309182;22;20019;-88
2022/08/08 22:52:24;;;;;;;2.67;1.38;;;20.40;80.10;;;;;;6289492;22;20077;-90
2022/08/08 22:55:02;;;;;;;1.85;1.20;;;20.40;80.90;;;;;;6240081;22;20015;-90
2022/08/08 22:57:55;;;;;;;4.47;1.45;;;20.40;80.20;;;;;;6265217;22;20085;-91
2022/08/08 23:03:40;;;;;;;;;;;;;;;;;;;;;
2022/08/08 23:06:25;;;;;;;2.83;1.42;;;20.50;80.00;;;;;;6316345;22;20039;-89
2022/08/08 23:09:30;;;;;;;;;;;;;;;;;;;;;
2022/08/08 23:12:18;;;;;;;;;;;;;;;;;;;;;
2022/08/08 23:14:57;;;;;;;3.40;1.45;;;20.30;80.60;;;;;;6291519;22;20031;-89
2022/08/08 23:20:35;;;;;;;5.05;1.40;;;20.30;80.80;;;;;;6296033;22;20037;-87
2022/08/08 23:23:22;;;;;;;6.70;1.60;;;20.30;80.90;;;;;;6287794;22;20362;-88
2022/08/08 23:26:17;;;;;;;2.70;1.50;;;20.30;80.90;;;;;;6263473;22;20416;-90
2022/08/08 23:29:06;;;;;;;;;;;;;;;;;;;;;
2022/08/08 23:31:40;;;;;;;2.75;1.42;;;20.30;81.00;;;;;;6291636;22;20440;-88
2022/08/08 23:34:23;;;;;;;2.33;1.35;;;20.40;81.00;;;;;;6289359;22;20424;-89
2022/08/08 23:37:13;;;;;;;;;;;;;;;;;;;;;
2022/08/08 23:40:10;;;;;;;1.90;1.20;;;20.50;80.60;;;;;;6317833;22;20014;-90
2022/08/08 23:42:41;;;;;;;2.70;1.27;;;20.60;80.40;;;;;;6270503;22;20057;-88
2022/08/08 23:45:55;;;;;;;2.92;1.50;;;20.60;80.30;;;;;;6272514;22;20011;-90
2022/08/08 23:48:37;;;;;;;;;;;;;;;;;;;;;
2022/08/08 23:51:40;;;;;;;5.00;1.45;;;20.50;80.40;;;;;;6335584;22;19987;-91
2022/08/08 23:54:36;;;;;;;3.55;1.20;;;20.50;80.60;;;;;;6285784;22;20012;-89
2022/08/08 23:57:15;;;;;;;1.35;1.05;;;20.40;80.60;;;;;;6306593;22;20079;-90
2022/08/08 23:59:53;;;;;;;2.03;1.20;;;20.40;80.70;;;;;;6304449;22;20003;-89
